createdAt,value
2018-06-09T00:00:05.156Z,943.64
2018-06-09T00:01:05.155Z,943.65
2018-06-09T00:02:05.155Z,943.68
2018-06-09T00:03:05.154Z,943.68
2018-06-09T00:04:05.144Z,943.71
2018-06-09T00:05:05.142Z,943.70
2018-06-09T00:06:05.138Z,943.69
2018-06-09T00:07:05.137Z,943.74
2018-06-09T00:08:05.134Z,943.71
2018-06-09T00:09:05.128Z,943.78
2018-06-09T00:10:05.124Z,943.77
2018-06-09T00:11:05.119Z,943.77
2018-06-09T00:12:05.118Z,943.72
2018-06-09T00:13:05.108Z,943.76
2018-06-09T00:14:05.173Z,943.75
2018-06-09T00:15:05.108Z,943.73
2018-06-09T00:16:05.103Z,943.74
2018-06-09T00:17:05.099Z,943.76
2018-06-09T00:18:05.101Z,943.79
2018-06-09T00:19:05.094Z,943.76
2018-06-09T00:20:05.091Z,943.77
2018-06-09T00:21:05.085Z,943.79
2018-06-09T00:22:05.084Z,943.79
2018-06-09T00:23:05.079Z,943.82
2018-06-09T00:24:05.127Z,943.77
2018-06-09T00:25:05.134Z,943.77
2018-06-09T00:26:05.138Z,943.77
2018-06-09T00:27:05.145Z,943.77
2018-06-09T00:28:05.152Z,943.81
2018-06-09T00:29:05.068Z,943.75
2018-06-09T00:30:05.058Z,943.76
2018-06-09T00:31:05.053Z,943.78
2018-06-09T00:32:05.051Z,943.80
2018-06-09T00:33:05.043Z,943.80
2018-06-09T00:34:05.041Z,943.84
2018-06-09T00:35:05.044Z,943.83
2018-06-09T00:36:05.033Z,943.84
2018-06-09T00:37:05.032Z,943.89
2018-06-09T00:38:05.029Z,943.84
2018-06-09T00:39:05.022Z,943.85
2018-06-09T00:40:05.026Z,943.81
2018-06-09T00:41:05.016Z,943.79
2018-06-09T00:42:05.013Z,943.76
2018-06-09T00:43:05.010Z,943.72
2018-06-09T00:44:05.003Z,943.76
2018-06-09T00:45:05.005Z,943.67
2018-06-09T00:46:04.998Z,943.64
2018-06-09T00:47:04.997Z,943.63
2018-06-09T00:48:04.994Z,943.62
2018-06-09T00:49:04.992Z,943.60
2018-06-09T00:50:04.989Z,943.55
2018-06-09T00:51:04.984Z,943.56
2018-06-09T00:52:04.969Z,943.52
2018-06-09T00:53:04.975Z,943.55
2018-06-09T00:54:04.976Z,943.59
2018-06-09T00:55:04.965Z,943.57
2018-06-09T00:56:04.970Z,943.59
2018-06-09T00:57:04.965Z,943.62
2018-06-09T00:58:04.963Z,943.59
2018-06-09T00:59:04.958Z,943.61
2018-06-09T01:00:04.961Z,943.58
2018-06-09T01:01:04.946Z,943.60
2018-06-09T01:02:04.949Z,943.59
2018-06-09T01:03:04.944Z,943.56
2018-06-09T01:04:04.943Z,943.57
2018-06-09T01:05:04.941Z,943.56
2018-06-09T01:06:04.933Z,943.56
2018-06-09T01:07:04.930Z,943.61
2018-06-09T01:08:04.933Z,943.61
2018-06-09T01:09:04.925Z,943.61
2018-06-09T01:10:04.921Z,943.64
2018-06-09T01:11:04.919Z,943.70
2018-06-09T01:12:04.916Z,943.70
2018-06-09T01:13:04.913Z,943.70
2018-06-09T01:14:04.907Z,943.65
2018-06-09T01:15:04.900Z,943.62
2018-06-09T01:16:04.902Z,943.67
2018-06-09T01:17:04.900Z,943.64
2018-06-09T01:18:04.907Z,943.64
2018-06-09T01:19:04.895Z,943.63
2018-06-09T01:20:04.889Z,943.64
2018-06-09T01:21:04.888Z,943.63
2018-06-09T01:22:04.880Z,943.62
2018-06-09T01:23:04.872Z,943.62
2018-06-09T01:24:04.874Z,943.62
2018-06-09T01:25:04.872Z,943.59
2018-06-09T01:26:04.868Z,943.64
2018-06-09T01:27:04.865Z,943.61
2018-06-09T01:28:04.862Z,943.59
2018-06-09T01:29:04.861Z,943.64
2018-06-09T01:30:04.861Z,943.61
2018-06-09T01:31:04.860Z,943.61
2018-06-09T02:04:15.871Z,943.71
2018-06-09T02:05:15.842Z,943.70
2018-06-09T02:07:08.727Z,943.66
2018-06-09T02:08:08.701Z,943.71
2018-06-09T02:10:01.598Z,943.64
2018-06-09T02:11:01.582Z,943.63
2018-06-09T02:12:54.489Z,943.62
2018-06-09T02:13:54.459Z,943.59
2018-06-09T02:15:47.401Z,943.56
2018-06-09T02:16:47.385Z,943.57
2018-06-09T02:18:40.307Z,943.54
2018-06-09T02:19:40.280Z,943.54
2018-06-09T02:21:33.231Z,943.44
2018-06-09T02:22:33.214Z,943.42
2018-06-09T02:24:26.256Z,943.37
2018-06-09T02:25:26.230Z,943.33
2018-06-09T02:27:19.190Z,943.32
2018-06-09T02:28:19.174Z,943.25
2018-06-09T02:30:12.192Z,943.29
2018-06-09T02:31:12.185Z,943.27
2018-06-09T02:33:05.227Z,943.30
2018-06-09T02:34:05.202Z,943.29
2018-06-09T02:35:58.099Z,943.35
2018-06-09T02:36:58.094Z,943.38
2018-06-09T02:38:51.015Z,943.39
2018-06-09T02:39:50.993Z,943.41
2018-06-09T02:41:44.010Z,943.44
2018-06-09T02:42:43.996Z,943.44
2018-06-09T02:44:36.925Z,943.43
2018-06-09T02:45:36.891Z,943.42
2018-06-09T02:47:29.938Z,943.44
2018-06-09T02:48:29.913Z,943.45
2018-06-09T02:50:22.810Z,943.43
2018-06-09T02:51:22.798Z,943.37
2018-06-09T02:53:15.805Z,943.35
2018-06-09T02:54:15.772Z,943.34
2018-06-09T02:56:08.709Z,943.35
2018-06-09T02:57:08.701Z,943.28
2018-06-09T02:59:01.651Z,943.29
2018-06-09T03:00:01.626Z,943.33
2018-06-09T03:01:54.516Z,943.38
2018-06-09T03:02:54.504Z,943.42
2018-06-09T03:04:47.458Z,943.39
2018-06-09T03:05:47.435Z,943.45
2018-06-09T03:07:40.342Z,943.42
2018-06-09T03:08:40.317Z,943.44
2018-06-09T03:10:33.297Z,943.45
2018-06-09T03:11:33.290Z,943.47
2018-06-09T03:13:26.251Z,943.50
2018-06-09T03:14:26.227Z,943.53
2018-06-09T03:15:26.226Z,943.58
2018-06-09T03:16:26.225Z,943.60
2018-06-09T03:17:26.220Z,943.64
2018-06-09T03:18:26.211Z,943.65
2018-06-09T03:19:26.217Z,943.64
2018-06-09T03:20:26.211Z,943.68
2018-06-09T03:21:26.250Z,943.70
2018-06-09T03:22:26.207Z,943.66
2018-06-09T03:23:26.196Z,943.65
2018-06-09T03:24:26.194Z,943.66
2018-06-09T03:25:26.187Z,943.66
2018-06-09T03:26:26.187Z,943.68
2018-06-09T03:27:26.182Z,943.67
2018-06-09T03:28:26.180Z,943.72
2018-06-09T03:29:26.182Z,943.70
2018-06-09T03:30:26.175Z,943.70
2018-06-09T03:31:26.172Z,943.71
2018-06-09T03:32:26.167Z,943.73
2018-06-09T03:33:26.164Z,943.70
2018-06-09T03:34:26.161Z,943.73
2018-06-09T03:35:26.161Z,943.75
2018-06-09T03:36:26.160Z,943.74
2018-06-09T03:37:26.148Z,943.80
2018-06-09T03:38:26.154Z,943.82
2018-06-09T03:39:26.148Z,943.84
2018-06-09T03:40:26.144Z,943.84
2018-06-09T03:41:26.138Z,943.83
2018-06-09T03:42:26.138Z,943.87
2018-06-09T03:43:26.187Z,943.90
2018-06-09T03:44:26.142Z,943.89
2018-06-09T03:45:26.129Z,943.93
2018-06-09T03:46:26.135Z,943.95
2018-06-09T03:47:26.122Z,943.93
2018-06-09T03:48:26.119Z,943.98
2018-06-09T03:49:26.111Z,944.03
2018-06-09T03:50:26.115Z,944.06
2018-06-09T03:51:26.106Z,944.06
2018-06-09T03:52:26.108Z,944.08
2018-06-09T03:53:26.100Z,944.12
2018-06-09T03:54:26.086Z,944.10
2018-06-09T03:55:26.092Z,944.09
2018-06-09T03:56:26.093Z,944.12
2018-06-09T03:57:26.092Z,944.09
2018-06-09T03:58:26.086Z,944.10
2018-06-09T03:59:26.075Z,944.04
2018-06-09T04:00:26.079Z,944.04
2018-06-09T04:01:26.074Z,944.09
2018-06-09T04:02:26.074Z,944.09
2018-06-09T04:03:26.074Z,944.10
2018-06-09T04:04:26.065Z,944.13
2018-06-09T04:05:26.067Z,944.15
2018-06-09T04:06:26.064Z,944.17
2018-06-09T04:07:26.065Z,944.15
2018-06-09T04:08:26.051Z,944.16
2018-06-09T04:09:26.055Z,944.15
2018-06-09T04:10:26.044Z,944.16
2018-06-09T04:11:26.045Z,944.16
2018-06-09T04:12:26.041Z,944.13
2018-06-09T04:13:26.035Z,944.20
2018-06-09T04:14:26.035Z,944.20
2018-06-09T04:15:26.028Z,944.20
2018-06-09T04:16:26.027Z,944.21
2018-06-09T04:17:26.023Z,944.26
2018-06-09T04:18:26.020Z,944.26
2018-06-09T04:19:26.016Z,944.26
2018-06-09T04:20:26.017Z,944.31
2018-06-09T04:21:26.012Z,944.32
2018-06-09T04:22:26.009Z,944.35
2018-06-09T04:23:25.996Z,944.38
2018-06-09T04:24:26.008Z,944.33
2018-06-09T04:25:26.000Z,944.33
2018-06-09T04:26:25.999Z,944.32
2018-06-09T04:27:26.000Z,944.29
2018-06-09T04:28:26.059Z,944.26
2018-06-09T04:29:25.986Z,944.23
2018-06-09T04:30:25.985Z,944.21
2018-06-09T04:31:25.987Z,944.17
2018-06-09T04:32:25.979Z,944.16
2018-06-09T04:33:25.976Z,944.16
2018-06-09T04:34:25.975Z,944.19
2018-06-09T04:35:25.975Z,944.22
2018-06-09T04:36:25.969Z,944.20
2018-06-09T04:37:25.962Z,944.23
2018-06-09T04:38:25.972Z,944.24
2018-06-09T04:39:25.961Z,944.28
2018-06-09T04:40:25.962Z,944.22
2018-06-09T04:41:25.955Z,944.25
2018-06-09T04:42:25.952Z,944.23
2018-06-09T04:43:25.950Z,944.26
2018-06-09T04:44:25.951Z,944.23
2018-06-09T04:45:25.973Z,944.15
2018-06-09T04:46:25.948Z,944.18
2018-06-09T04:47:25.946Z,944.15
2018-06-09T04:48:25.938Z,944.15
2018-06-09T04:49:25.934Z,944.09
2018-06-09T04:50:25.924Z,944.11
2018-06-09T04:51:25.933Z,944.10
2018-06-09T04:52:25.939Z,944.09
2018-06-09T04:53:25.927Z,944.12
2018-06-09T04:54:25.932Z,944.16
2018-06-09T04:55:25.924Z,944.15
2018-06-09T04:56:25.917Z,944.17
2018-06-09T04:57:25.924Z,944.17
2018-06-09T04:58:25.933Z,944.16
2018-06-09T04:59:25.920Z,944.22
2018-06-09T05:00:25.913Z,944.22
2018-06-09T05:01:25.913Z,944.27
2018-06-09T05:02:25.909Z,944.30
2018-06-09T05:03:25.906Z,944.28
2018-06-09T05:04:25.906Z,944.27
2018-06-09T05:05:25.901Z,944.23
2018-06-09T05:06:25.900Z,944.24
2018-06-09T05:07:25.897Z,944.25
2018-06-09T05:08:25.894Z,944.27
2018-06-09T05:09:25.894Z,944.29
2018-06-09T05:10:25.900Z,944.23
2018-06-09T05:11:25.885Z,944.26
2018-06-09T05:12:25.887Z,944.27
2018-06-09T05:13:25.883Z,944.22
2018-06-09T05:14:25.887Z,944.20
2018-06-09T05:15:25.880Z,944.22
2018-06-09T05:16:25.883Z,944.18
2018-06-09T05:17:25.875Z,944.19
2018-06-09T05:18:25.884Z,944.18
2018-06-09T05:19:25.872Z,944.22
2018-06-09T05:20:25.874Z,944.26
2018-06-09T05:21:25.868Z,944.25
2018-06-09T05:22:25.863Z,944.28
2018-06-09T05:23:25.861Z,944.28
2018-06-09T05:24:25.861Z,944.29
2018-06-09T05:25:25.858Z,944.28
2018-06-09T05:26:25.850Z,944.30
2018-06-09T05:27:25.854Z,944.26
2018-06-09T05:28:25.857Z,944.22
2018-06-09T05:29:25.851Z,944.24
2018-06-09T05:30:25.851Z,944.22
2018-06-09T05:31:25.844Z,944.27
2018-06-09T05:32:25.849Z,944.26
2018-06-09T05:33:25.840Z,944.25
2018-06-09T05:34:25.836Z,944.28
2018-06-09T05:35:25.833Z,944.30
2018-06-09T05:36:25.835Z,944.35
2018-06-09T05:37:25.833Z,944.29
2018-06-09T05:38:25.831Z,944.32
2018-06-09T05:39:25.832Z,944.30
2018-06-09T05:40:25.824Z,944.26
2018-06-09T05:41:25.821Z,944.23
2018-06-09T05:42:25.823Z,944.23
2018-06-09T05:43:25.823Z,944.24
2018-06-09T05:44:25.820Z,944.22
2018-06-09T05:45:25.823Z,944.29
2018-06-09T05:46:25.818Z,944.29
2018-06-09T05:47:25.810Z,944.30
2018-06-09T05:48:25.813Z,944.27
2018-06-09T05:49:25.821Z,944.29
2018-06-09T05:50:25.813Z,944.35
2018-06-09T05:51:25.804Z,944.40
2018-06-09T05:52:25.809Z,944.38
2018-06-09T05:53:25.811Z,944.39
2018-06-09T05:54:25.810Z,944.38
2018-06-09T05:55:25.802Z,944.39
2018-06-09T05:56:25.820Z,944.42
2018-06-09T05:57:25.819Z,944.45
2018-06-09T05:58:25.795Z,944.47
2018-06-09T05:59:25.808Z,944.49
2018-06-09T06:00:25.806Z,944.50
2018-06-09T06:01:25.806Z,944.48
2018-06-09T06:02:25.807Z,944.53
2018-06-09T06:03:25.807Z,944.53
2018-06-09T06:04:25.809Z,944.53
2018-06-09T06:05:25.809Z,944.50
2018-06-09T06:06:25.830Z,944.48
2018-06-09T06:07:25.810Z,944.55
2018-06-09T06:08:25.860Z,944.55
2018-06-09T06:09:25.809Z,944.55
2018-06-09T06:10:25.808Z,944.54
2018-06-09T06:11:25.810Z,944.54
2018-06-09T06:12:26.683Z,944.61
2018-06-09T06:13:25.817Z,944.61
2018-06-09T06:14:25.815Z,944.65
2018-06-09T06:15:25.818Z,944.65
2018-06-09T06:16:25.814Z,944.64
2018-06-09T06:17:25.815Z,944.58
2018-06-09T06:18:25.820Z,944.58
2018-06-09T06:19:25.820Z,944.59
2018-06-09T06:20:25.823Z,944.59
2018-06-09T06:21:25.839Z,944.61
2018-06-09T06:22:25.824Z,944.62
2018-06-09T06:23:25.823Z,944.60
2018-06-09T06:24:25.827Z,944.65
2018-06-09T06:25:25.827Z,944.71
2018-06-09T06:26:25.830Z,944.68
2018-06-09T06:27:25.831Z,944.73
2018-06-09T06:28:25.837Z,944.73
2018-06-09T06:29:25.838Z,944.67
2018-06-09T06:30:25.840Z,944.66
2018-06-09T06:31:25.839Z,944.61
2018-06-09T06:32:25.841Z,944.60
2018-06-09T06:33:25.846Z,944.60
2018-06-09T06:34:25.847Z,944.64
2018-06-09T06:35:25.850Z,944.63
2018-06-09T06:36:25.865Z,944.62
2018-06-09T06:37:25.848Z,944.65
2018-06-09T06:38:25.857Z,944.67
2018-06-09T06:39:25.861Z,944.71
2018-06-09T06:40:25.869Z,944.66
2018-06-09T06:41:25.868Z,944.66
2018-06-09T06:42:25.867Z,944.69
2018-06-09T06:43:25.871Z,944.65
2018-06-09T06:44:25.873Z,944.63
2018-06-09T06:45:25.886Z,944.60
2018-06-09T06:46:25.880Z,944.63
2018-06-09T06:47:25.878Z,944.59
2018-06-09T06:48:25.879Z,944.58
2018-06-09T06:49:25.887Z,944.62
2018-06-09T06:50:25.886Z,944.59
2018-06-09T06:51:25.895Z,944.61
2018-06-09T06:52:25.894Z,944.64
2018-06-09T06:53:25.903Z,944.66
2018-06-09T06:54:25.901Z,944.61
2018-06-09T06:55:25.908Z,944.66
2018-06-09T06:56:25.912Z,944.59
2018-06-09T06:57:25.915Z,944.63
2018-06-09T06:58:25.913Z,944.60
2018-06-09T06:59:25.922Z,944.62
2018-06-09T07:00:25.926Z,944.60
2018-06-09T07:01:25.928Z,944.57
2018-06-09T07:02:25.934Z,944.62
2018-06-09T07:03:25.950Z,944.60
2018-06-09T07:04:25.945Z,944.60
2018-06-09T07:05:25.946Z,944.76
2018-06-09T07:06:25.953Z,944.66
2018-06-09T07:07:25.957Z,944.64
2018-06-09T07:08:25.963Z,944.66
2018-06-09T07:09:25.971Z,944.61
2018-06-09T07:10:25.969Z,944.69
2018-06-09T07:11:25.976Z,944.64
2018-06-09T07:12:26.010Z,944.63
2018-06-09T07:13:26.050Z,944.69
2018-06-09T07:14:26.002Z,944.71
2018-06-09T07:15:26.099Z,944.74
2018-06-09T07:16:26.006Z,944.75
2018-06-09T07:17:25.995Z,944.74
2018-06-09T07:18:26.014Z,944.81
2018-06-09T07:19:26.018Z,944.79
2018-06-09T07:20:26.027Z,944.84
2018-06-09T07:21:26.027Z,944.84
2018-06-09T07:22:26.039Z,944.81
2018-06-09T07:23:26.039Z,944.85
2018-06-09T07:24:26.049Z,944.84
2018-06-09T07:25:26.063Z,944.77
2018-06-09T07:26:26.073Z,944.91
2018-06-09T07:27:26.069Z,944.86
2018-06-09T07:28:26.075Z,944.86
2018-06-09T07:29:26.087Z,944.83
2018-06-09T07:30:26.089Z,944.77
2018-06-09T07:31:26.112Z,944.70
2018-06-09T07:32:26.110Z,944.74
2018-06-09T07:33:26.116Z,944.67
2018-06-09T07:34:26.126Z,944.65
2018-06-09T07:35:26.134Z,944.68
2018-06-09T07:36:26.144Z,944.62
2018-06-09T07:37:26.147Z,944.59
2018-06-09T07:38:26.162Z,944.57
2018-06-09T07:39:26.168Z,944.53
2018-06-09T07:40:26.176Z,944.53
2018-06-09T07:41:26.183Z,944.52
2018-06-09T07:42:26.190Z,944.53
2018-06-09T07:43:26.207Z,944.50
2018-06-09T07:44:26.209Z,944.50
2018-06-09T07:45:26.213Z,944.54
2018-06-09T07:46:26.221Z,944.50
2018-06-09T07:47:26.227Z,944.49
2018-06-09T07:48:26.261Z,944.57
2018-06-09T07:49:26.246Z,944.55
2018-06-09T07:50:26.243Z,944.64
2018-06-09T07:51:26.257Z,944.65
2018-06-09T07:52:26.260Z,944.69
2018-06-09T07:53:26.270Z,944.66
2018-06-09T07:54:26.277Z,944.66
2018-06-09T07:55:26.275Z,944.58
2018-06-09T07:56:26.287Z,944.58
2018-06-09T07:57:26.294Z,944.53
2018-06-09T07:58:26.303Z,944.55
2018-06-09T07:59:26.308Z,944.53
2018-06-09T08:00:26.329Z,944.56
2018-06-09T08:01:26.329Z,944.59
2018-06-09T08:02:26.336Z,944.57
2018-06-09T08:03:26.347Z,944.53
2018-06-09T08:04:26.355Z,944.64
2018-06-09T08:05:26.367Z,944.60
2018-06-09T08:06:26.376Z,944.62
2018-06-09T08:07:26.384Z,944.69
2018-06-09T08:08:26.388Z,944.60
2018-06-09T08:09:26.406Z,944.65
2018-06-09T08:10:26.410Z,944.66
2018-06-09T08:11:26.420Z,944.66
2018-06-09T08:12:26.435Z,944.61
2018-06-09T08:13:26.443Z,944.63
2018-06-09T08:14:26.455Z,944.58
2018-06-09T08:15:26.487Z,944.62
2018-06-09T08:16:26.477Z,944.60
2018-06-09T08:17:26.484Z,944.65
2018-06-09T08:18:26.491Z,944.69
2018-06-09T08:19:26.509Z,944.71
2018-06-09T08:20:26.515Z,944.75
2018-06-09T08:21:26.527Z,944.70
2018-06-09T08:22:26.540Z,944.73
2018-06-09T08:23:26.557Z,944.70
2018-06-09T08:24:26.608Z,944.55
2018-06-09T08:25:26.602Z,944.63
2018-06-09T08:26:26.586Z,944.56
2018-06-09T08:27:26.606Z,944.71
2018-06-09T08:28:26.622Z,944.65
2018-06-09T08:29:26.628Z,944.53
2018-06-09T08:30:26.671Z,944.67
2018-06-09T08:31:26.659Z,944.58
2018-06-09T08:32:26.670Z,944.66
2018-06-09T08:33:26.681Z,944.56
2018-06-09T08:34:26.719Z,944.55
2018-06-09T08:35:26.706Z,944.52
2018-06-09T08:36:26.759Z,944.48
2018-06-09T08:37:26.722Z,944.50
2018-06-09T08:38:26.733Z,944.48
2018-06-09T08:39:26.770Z,944.45
2018-06-09T08:40:26.769Z,944.58
2018-06-09T08:41:26.775Z,944.49
2018-06-09T08:42:26.791Z,944.45
2018-06-09T08:43:26.797Z,944.40
2018-06-09T08:44:26.814Z,944.47
2018-06-09T08:45:26.822Z,944.55
2018-06-09T08:46:26.880Z,944.62
2018-06-09T08:47:26.841Z,944.64
2018-06-09T08:48:26.852Z,944.56
2018-06-09T08:49:26.863Z,944.59
2018-06-09T08:50:26.882Z,944.59
2018-06-09T08:51:26.914Z,944.43
2018-06-09T08:52:26.906Z,944.61
2018-06-09T08:53:26.964Z,944.61
2018-06-09T08:54:26.943Z,944.58
2018-06-09T08:55:26.939Z,944.47
2018-06-09T08:56:26.953Z,944.59
2018-06-09T08:57:26.962Z,944.59
2018-06-09T08:58:26.991Z,944.67
2018-06-09T08:59:27.001Z,944.65
2018-06-09T09:00:27.011Z,944.68
2018-06-09T09:01:27.051Z,944.67
2018-06-09T09:02:27.044Z,944.65
2018-06-09T09:03:27.062Z,944.57
2018-06-09T09:04:27.098Z,944.58
2018-06-09T09:05:27.108Z,944.56
2018-06-09T09:06:27.111Z,944.58
2018-06-09T09:07:27.122Z,944.71
2018-06-09T09:08:27.138Z,944.72
2018-06-09T09:09:27.176Z,944.67
2018-06-09T09:10:27.158Z,944.58
2018-06-09T09:11:27.184Z,944.59
2018-06-09T09:12:27.205Z,944.73
2018-06-09T09:13:27.266Z,944.66
2018-06-09T09:14:27.237Z,944.70
2018-06-09T09:15:27.248Z,944.72
2018-06-09T09:16:27.301Z,944.75
2018-06-09T09:17:27.292Z,944.75
2018-06-09T09:18:27.299Z,944.68
2018-06-09T09:19:27.310Z,944.60
2018-06-09T09:20:27.327Z,944.62
2018-06-09T09:21:27.335Z,944.70
2018-06-09T09:22:27.359Z,944.75
2018-06-09T09:23:27.381Z,944.77
2018-06-09T09:24:27.400Z,944.84
2018-06-09T09:25:27.404Z,944.74
2018-06-09T09:26:27.421Z,944.77
2018-06-09T09:27:27.458Z,944.75
2018-06-09T09:28:27.471Z,944.72
2018-06-09T09:29:27.460Z,944.80
2018-06-09T09:30:27.485Z,944.77
2018-06-09T09:31:27.497Z,944.81
2018-06-09T09:32:27.500Z,944.75
2018-06-09T09:33:27.518Z,944.75
2018-06-09T09:34:27.524Z,944.68
2018-06-09T09:35:27.557Z,944.70
2018-06-09T09:36:27.579Z,944.69
2018-06-09T09:37:27.569Z,944.70
2018-06-09T09:38:27.583Z,944.71
2018-06-09T09:39:27.594Z,944.74
2018-06-09T09:40:27.624Z,944.73
2018-06-09T09:41:27.609Z,944.70
2018-06-09T09:42:27.626Z,944.75
2018-06-09T09:43:27.636Z,944.78
2018-06-09T09:44:27.646Z,944.86
2018-06-09T09:45:28.238Z,944.85
2018-06-09T09:46:27.672Z,944.88
2018-06-09T09:47:27.702Z,944.83
2018-06-09T09:48:27.697Z,944.80
2018-06-09T09:49:27.714Z,944.75
2018-06-09T09:50:27.710Z,944.80
2018-06-09T09:51:28.238Z,944.91
2018-06-09T09:52:27.735Z,944.84
2018-06-09T09:53:27.740Z,944.84
2018-06-09T09:54:27.751Z,944.86
2018-06-09T09:55:27.762Z,944.86
2018-06-09T09:56:27.770Z,944.89
2018-06-09T09:57:27.784Z,944.84
2018-06-09T09:58:27.809Z,944.88
2018-06-09T09:59:27.818Z,944.86
2018-06-09T10:00:27.826Z,944.87
2018-06-09T10:01:27.894Z,944.85
2018-06-09T10:02:27.862Z,944.76
2018-06-09T10:03:27.870Z,944.75
2018-06-09T10:04:27.894Z,944.69
2018-06-09T10:05:27.907Z,944.80
2018-06-09T10:06:27.915Z,944.74
2018-06-09T10:07:27.932Z,944.77
2018-06-09T10:08:27.944Z,944.69
2018-06-09T10:09:27.958Z,944.70
2018-06-09T10:10:27.969Z,944.74
2018-06-09T10:11:27.973Z,944.79
2018-06-09T10:12:27.995Z,944.77
2018-06-09T10:13:28.054Z,944.70
2018-06-09T10:14:28.038Z,944.78
2018-06-09T10:15:28.031Z,944.81
2018-06-09T10:16:28.041Z,944.72
2018-06-09T10:17:28.059Z,944.75
2018-06-09T10:18:28.091Z,944.77
2018-06-09T10:19:28.090Z,944.78
2018-06-09T10:20:28.108Z,944.74
2018-06-09T10:21:28.123Z,944.76
2018-06-09T10:22:28.132Z,944.73
2018-06-09T10:23:28.152Z,944.69
2018-06-09T10:24:28.167Z,944.72
2018-06-09T10:25:28.183Z,944.69
2018-06-09T10:26:28.199Z,944.70
2018-06-09T10:27:28.223Z,944.70
2018-06-09T10:28:28.234Z,944.69
2018-06-09T10:29:28.250Z,944.68
2018-06-09T10:30:28.267Z,944.61
2018-06-09T10:31:28.275Z,944.59
2018-06-09T10:32:28.302Z,944.64
2018-06-09T10:33:28.317Z,944.44
2018-06-09T10:34:28.332Z,944.47
2018-06-09T10:35:28.350Z,944.40
2018-06-09T10:36:28.388Z,944.41
2018-06-09T10:37:28.383Z,944.42
2018-06-09T10:38:28.393Z,944.41
2018-06-09T10:39:28.405Z,944.43
2018-06-09T10:40:28.422Z,944.43
2018-06-09T10:41:28.440Z,944.50
2018-06-09T10:42:28.442Z,944.45
2018-06-09T10:43:28.459Z,944.47
2018-06-09T10:44:28.481Z,944.43
2018-06-09T10:45:28.511Z,944.38
2018-06-09T10:46:28.508Z,944.43
2018-06-09T10:47:28.520Z,944.42
2018-06-09T10:48:28.548Z,944.39
2018-06-09T10:49:28.554Z,944.40
2018-06-09T10:50:28.571Z,944.33
2018-06-09T10:51:28.583Z,944.31
2018-06-09T10:52:28.598Z,944.34
2018-06-09T10:53:28.616Z,944.32
2018-06-09T10:54:28.632Z,944.34
2018-06-09T10:55:28.636Z,944.30
2018-06-09T10:56:28.665Z,944.36
2018-06-09T10:57:28.730Z,944.31
2018-06-09T10:58:28.697Z,944.22
2018-06-09T10:59:28.712Z,944.22
2018-06-09T11:00:28.732Z,944.21
2018-06-09T11:01:28.751Z,944.15
2018-06-09T11:02:28.755Z,944.14
2018-06-09T11:03:28.780Z,944.09
2018-06-09T11:04:28.797Z,944.17
2018-06-09T11:05:28.816Z,944.16
2018-06-09T11:06:28.836Z,944.12
2018-06-09T11:07:28.853Z,944.16
2018-06-09T11:08:28.862Z,944.13
2018-06-09T11:09:28.889Z,944.12
2018-06-09T11:10:28.910Z,944.07
2018-06-09T11:11:28.918Z,944.05
2018-06-09T11:12:28.929Z,944.04
2018-06-09T11:13:28.948Z,943.98
2018-06-09T11:14:28.964Z,944.00
2018-06-09T11:15:28.981Z,943.98
2018-06-09T11:16:28.998Z,943.92
2018-06-09T11:17:29.018Z,943.89
2018-06-09T11:18:29.038Z,943.89
2018-06-09T11:19:29.055Z,943.84
2018-06-09T11:20:29.086Z,943.88
2018-06-09T11:21:29.086Z,943.88
2018-06-09T11:22:29.108Z,943.85
2018-06-09T11:23:29.123Z,943.85
2018-06-09T11:24:29.167Z,943.80
2018-06-09T11:25:29.168Z,943.77
2018-06-09T11:26:29.185Z,943.79
2018-06-09T11:27:29.189Z,943.76
2018-06-09T11:28:29.213Z,943.74
2018-06-09T11:29:29.227Z,943.80
2018-06-09T11:30:29.341Z,943.80
2018-06-09T11:31:29.268Z,943.73
2018-06-09T11:32:29.290Z,943.70
2018-06-09T11:33:29.301Z,943.73
2018-06-09T11:34:29.319Z,943.67
2018-06-09T11:35:29.343Z,943.62
2018-06-09T11:36:29.360Z,943.63
2018-06-09T11:37:29.374Z,943.62
2018-06-09T11:38:29.398Z,943.71
2018-06-09T11:39:29.415Z,943.69
2018-06-09T11:40:29.434Z,943.70
2018-06-09T11:41:29.444Z,943.70
2018-06-09T11:42:29.460Z,943.68
2018-06-09T11:43:29.490Z,943.67
2018-06-09T11:44:29.509Z,943.64
2018-06-09T11:45:29.524Z,943.63
2018-06-09T11:46:29.547Z,943.64
2018-06-09T11:47:29.553Z,943.52
2018-06-09T11:48:29.584Z,943.57
2018-06-09T11:49:29.599Z,943.54
2018-06-09T11:50:29.615Z,943.55
2018-06-09T11:51:29.638Z,943.51
2018-06-09T11:52:29.653Z,943.53
2018-06-09T11:53:29.667Z,943.54
2018-06-09T11:54:29.677Z,943.50
2018-06-09T11:55:29.696Z,943.55
2018-06-09T11:56:29.722Z,943.52
2018-06-09T11:57:29.725Z,943.49
2018-06-09T11:58:29.744Z,943.42
2018-06-09T11:59:29.755Z,943.45
2018-06-09T12:00:29.770Z,943.50
2018-06-09T12:01:29.785Z,943.48
2018-06-09T12:02:29.796Z,943.51
2018-06-09T12:03:29.809Z,943.52
2018-06-09T12:04:29.825Z,943.46
2018-06-09T12:05:29.878Z,943.42
2018-06-09T12:06:29.852Z,943.47
2018-06-09T12:07:29.858Z,943.46
2018-06-09T12:08:29.886Z,943.44
2018-06-09T12:09:29.901Z,943.41
2018-06-09T12:10:29.906Z,943.42
2018-06-09T12:11:29.924Z,943.46
2018-06-09T12:12:29.941Z,943.46
2018-06-09T12:13:29.953Z,943.43
2018-06-09T12:14:29.968Z,943.45
2018-06-09T12:15:29.989Z,943.44
2018-06-09T12:16:30.007Z,943.46
2018-06-09T12:17:30.023Z,943.49
2018-06-09T12:18:30.041Z,943.47
2018-06-09T12:19:30.056Z,943.49
2018-06-09T12:20:30.074Z,943.52
2018-06-09T12:21:30.096Z,943.54
2018-06-09T12:22:30.123Z,943.49
2018-06-09T12:23:30.129Z,943.54
2018-06-09T12:24:30.143Z,943.57
2018-06-09T12:25:30.162Z,943.55
2018-06-09T12:26:30.182Z,943.54
2018-06-09T12:27:30.196Z,943.50
2018-06-09T12:28:30.215Z,943.49
2018-06-09T12:29:30.236Z,943.51
2018-06-09T12:30:30.250Z,943.46
2018-06-09T12:31:30.268Z,943.52
2018-06-09T12:32:30.296Z,943.46
2018-06-09T12:33:30.299Z,943.47
2018-06-09T12:34:30.315Z,943.47
2018-06-09T12:35:30.332Z,943.46
2018-06-09T12:36:30.344Z,943.48
2018-06-09T12:37:30.361Z,943.46
2018-06-09T12:38:30.370Z,943.44
2018-06-09T12:39:30.387Z,943.39
2018-06-09T12:40:30.414Z,943.40
2018-06-09T12:41:30.410Z,943.37
2018-06-09T12:42:30.426Z,943.39
2018-06-09T12:43:30.438Z,943.34
2018-06-09T12:44:30.440Z,943.36
2018-06-09T12:45:30.457Z,943.34
2018-06-09T12:46:30.469Z,943.27
2018-06-09T12:47:30.477Z,943.32
2018-06-09T12:48:30.488Z,943.28
2018-06-09T12:49:30.497Z,943.20
2018-06-09T12:50:30.507Z,943.24
2018-06-09T12:51:30.525Z,943.20
2018-06-09T12:52:30.524Z,943.22
2018-06-09T12:53:30.533Z,943.18
2018-06-09T12:54:30.546Z,943.19
2018-06-09T12:55:30.551Z,943.19
2018-06-09T12:56:30.562Z,943.15
2018-06-09T12:57:30.560Z,943.16
2018-06-09T12:58:30.573Z,943.15
2018-06-09T12:59:30.575Z,943.15
2018-06-09T13:00:30.591Z,943.14
2018-06-09T13:01:30.599Z,943.13
2018-06-09T13:02:30.608Z,943.12
2018-06-09T13:03:30.618Z,943.20
2018-06-09T13:04:30.623Z,943.17
2018-06-09T13:05:30.630Z,943.13
2018-06-09T13:06:30.628Z,943.12
2018-06-09T13:07:30.644Z,943.08
2018-06-09T13:08:30.676Z,943.07
2018-06-09T13:09:30.657Z,943.06
2018-06-09T13:10:30.665Z,943.06
2018-06-09T13:11:30.673Z,943.02
2018-06-09T13:12:30.684Z,943.01
2018-06-09T13:13:30.683Z,942.96
2018-06-09T13:14:30.697Z,942.95
2018-06-09T13:15:30.697Z,942.99
2018-06-09T13:16:30.708Z,942.96
2018-06-09T13:17:30.716Z,942.97
2018-06-09T13:18:30.717Z,942.94
2018-06-09T13:19:30.733Z,942.94
2018-06-09T13:20:30.736Z,942.90
2018-06-09T13:21:30.736Z,942.85